Time,TemperatureF,DewpointF,PressureIn,WindDirection,WindDirectionDegrees,WindSpeedMPH,WindSpeedGustMPH,Humidity,HourlyPrecipIn,Conditions,Clouds,dailyrainin,SolarRadiationWatts/m^2,SoftwareType,DateUTC
2013-06-01 00:03:00,75.0,65.0,-100.00,WSW,258,3.0,6.0,72,0.00,,,0.00,0.000000,,2013-06-01 04:03:00,
2013-06-01 00:12:00,75.0,65.0,-100.00,WSW,258,3.0,6.0,72,0.00,,,0.00,0.000000,,2013-06-01 04:12:00,
2013-06-01 00:23:00,75.0,65.0,-100.00,WSW,258,3.0,6.0,72,0.00,,,0.00,0.000000,,2013-06-01 04:23:00,
2013-06-01 00:53:00,77.0,65.0,-100.00,West,270,5.0,10.0,67,0.00,,,0.00,0.000000,,2013-06-01 04:53:00,
2013-06-01 01:02:00,77.0,65.0,-100.00,West,270,5.0,10.0,67,0.00,,,0.00,0.000000,,2013-06-01 05:02:00,
2013-06-01 01:12:00,77.0,65.0,-100.00,West,270,5.0,10.0,67,0.00,,,0.00,0.000000,,2013-06-01 05:12:00,
2013-06-01 01:22:00,77.0,65.0,-100.00,West,270,5.0,10.0,67,0.00,,,0.00,0.000000,,2013-06-01 05:22:00,
2013-06-01 01:52:00,76.0,66.0,-100.00,West,274,4.0,10.0,72,0.00,,,0.00,0.000000,,2013-06-01 05:52:00,
2013-06-01 02:01:00,76.0,66.0,-100.00,West,274,4.0,10.0,72,0.00,,,0.00,0.000000,,2013-06-01 06:01:00,
2013-06-01 02:12:00,76.0,66.0,-100.00,West,274,4.0,10.0,72,0.00,,,0.00,0.000000,,2013-06-01 06:12:00,
2013-06-01 02:22:00,76.0,66.0,-100.00,West,274,4.0,10.0,72,0.00,,,0.00,0.000000,,2013-06-01 06:22:00,
2013-06-01 02:52:00,75.0,66.0,-100.00,West,269,5.0,10.0,74,0.00,,,0.00,0.000000,,2013-06-01 06:52:00,
2013-06-01 03:01:00,75.0,66.0,-100.00,West,269,5.0,10.0,74,0.00,,,0.00,0.000000,,2013-06-01 07:01:00,
2013-06-01 03:11:00,75.0,66.0,-100.00,West,269,5.0,10.0,74,0.00,,,0.00,0.000000,,2013-06-01 07:11:00,
2013-06-01 03:22:00,75.0,66.0,-100.00,West,269,5.0,10.0,74,0.00,,,0.00,0.000000,,2013-06-01 07:22:00,
2013-06-01 03:52:00,74.0,67.0,-100.00,WNW,298,4.0,11.0,78,0.00,,,0.00,0.000000,,2013-06-01 07:52:00,
2013-06-01 04:02:00,74.0,67.0,-100.00,WNW,298,4.0,11.0,78,0.00,,,0.00,0.000000,,2013-06-01 08:02:00,
2013-06-01 04:11:00,74.0,67.0,-100.00,WNW,298,4.0,11.0,78,0.00,,,0.00,0.000000,,2013-06-01 08:11:00,
2013-06-01 04:22:00,74.0,67.0,-100.00,WNW,298,4.0,11.0,78,0.00,,,0.00,0.000000,,2013-06-01 08:22:00,
2013-06-01 04:52:00,72.0,66.0,-100.00,NW,312,3.0,8.0,81,0.00,,,0.00,0.000000,,2013-06-01 08:52:00,
2013-06-01 05:02:00,72.0,66.0,-100.00,NW,312,3.0,8.0,81,0.00,,,0.00,0.000000,,2013-06-01 09:02:00,
2013-06-01 05:12:00,72.0,66.0,-100.00,NW,312,3.0,8.0,81,0.00,,,0.00,0.000000,,2013-06-01 09:12:00,
2013-06-01 05:22:00,72.0,66.0,-100.00,NW,312,3.0,8.0,81,0.00,,,0.00,0.000000,,2013-06-01 09:22:00,
2013-06-01 05:53:00,72.0,65.0,-100.00,WNW,289,4.0,9.0,80,0.00,,,0.00,2.000000,,2013-06-01 09:53:00,
2013-06-01 06:02:00,72.0,65.0,-100.00,WNW,289,4.0,9.0,80,0.00,,,0.00,2.000000,,2013-06-01 10:02:00,
2013-06-01 06:13:00,72.0,65.0,-100.00,WNW,289,4.0,9.0,80,0.00,,,0.00,2.000000,,2013-06-01 10:13:00,
2013-06-01 06:22:00,72.0,65.0,-100.00,WNW,289,4.0,9.0,80,0.00,,,0.00,2.000000,,2013-06-01 10:22:00,
2013-06-01 06:53:00,73.0,66.0,-100.00,WNW,296,3.0,8.0,78,0.00,,,0.00,29.000000,,2013-06-01 10:53:00,
2013-06-01 07:03:00,73.0,66.0,-100.00,WNW,296,3.0,8.0,78,0.00,,,0.00,29.000000,,2013-06-01 11:03:00,
2013-06-01 07:11:00,73.0,66.0,-100.00,WNW,296,3.0,8.0,78,0.00,,,0.00,29.000000,,2013-06-01 11:11:00,
2013-06-01 07:22:00,73.0,66.0,-100.00,WNW,296,3.0,8.0,78,0.00,,,0.00,29.000000,,2013-06-01 11:22:00,
2013-06-01 07:52:00,73.0,63.0,-100.00,SE,131,3.0,9.0,71,0.00,,,0.00,226.000000,,2013-06-01 11:52:00,
2013-06-01 08:01:00,73.0,63.0,-100.00,SE,131,3.0,9.0,71,0.00,,,0.00,226.000000,,2013-06-01 12:01:00,
2013-06-01 08:12:00,73.0,63.0,-100.00,SE,131,3.0,9.0,71,0.00,,,0.00,226.000000,,2013-06-01 12:12:00,
2013-06-01 08:22:00,73.0,63.0,-100.00,SE,131,3.0,9.0,71,0.00,,,0.00,226.000000,,2013-06-01 12:22:00,
2013-06-01 08:52:00,84.0,67.0,-100.00,West,277,4.0,12.0,57,0.00,,,0.00,406.000000,,2013-06-01 12:52:00,
2013-06-01 09:01:00,84.0,67.0,-100.00,West,277,4.0,12.0,57,0.00,,,0.00,406.000000,,2013-06-01 13:01:00,
2013-06-01 09:12:00,84.0,67.0,-100.00,West,277,4.0,12.0,57,0.00,,,0.00,406.000000,,2013-06-01 13:12:00,
2013-06-01 09:22:00,84.0,67.0,-100.00,West,277,4.0,12.0,57,0.00,,,0.00,406.000000,,2013-06-01 13:22:00,
2013-06-01 09:52:00,87.0,68.0,-100.00,West,281,4.0,12.0,53,0.00,,,0.00,578.000000,,2013-06-01 13:52:00,
2013-06-01 10:02:00,87.0,68.0,-100.00,West,281,4.0,12.0,53,0.00,,,0.00,578.000000,,2013-06-01 14:02:00,
2013-06-01 10:11:00,87.0,68.0,-100.00,West,281,4.0,12.0,53,0.00,,,0.00,578.000000,,2013-06-01 14:11:00,
2013-06-01 10:21:00,87.0,68.0,-100.00,West,281,4.0,12.0,53,0.00,,,0.00,578.000000,,2013-06-01 14:21:00,
2013-06-01 10:52:00,89.0,68.0,-100.00,WSW,252,5.0,11.0,51,0.00,,,0.00,729.000000,,2013-06-01 14:52:00,
2013-06-01 11:02:00,89.0,68.0,-100.00,WSW,252,5.0,11.0,51,0.00,,,0.00,729.000000,,2013-06-01 15:02:00,
2013-06-01 11:11:00,89.0,68.0,-100.00,WSW,252,5.0,11.0,51,0.00,,,0.00,729.000000,,2013-06-01 15:11:00,
2013-06-01 11:22:00,89.0,68.0,-100.00,WSW,252,5.0,11.0,51,0.00,,,0.00,729.000000,,2013-06-01 15:22:00,
2013-06-01 11:54:00,89.0,68.0,-100.00,SE,125,4.0,11.0,50,0.00,,,0.00,839.000000,,2013-06-01 15:54:00,
2013-06-01 12:03:00,89.0,68.0,-100.00,SE,125,4.0,11.0,50,0.00,,,0.00,839.000000,,2013-06-01 16:03:00,
2013-06-01 12:12:00,89.0,68.0,-100.00,SE,125,4.0,11.0,50,0.00,,,0.00,839.000000,,2013-06-01 16:12:00,
2013-06-01 12:23:00,89.0,68.0,-100.00,SE,125,4.0,11.0,50,0.00,,,0.00,839.000000,,2013-06-01 16:23:00,
2013-06-01 12:53:00,89.0,67.0,-100.00,SE,134,5.0,11.0,49,0.00,,,0.00,897.000000,,2013-06-01 16:53:00,
2013-06-01 13:02:00,89.0,67.0,-100.00,SE,134,5.0,11.0,49,0.00,,,0.00,897.000000,,2013-06-01 17:02:00,
2013-06-01 13:12:00,89.0,67.0,-100.00,SE,134,5.0,11.0,49,0.00,,,0.00,897.000000,,2013-06-01 17:12:00,
2013-06-01 13:22:00,89.0,67.0,-100.00,SE,134,5.0,11.0,49,0.00,,,0.00,897.000000,,2013-06-01 17:22:00,
2013-06-01 13:52:00,90.0,68.0,-100.00,SE,130,5.0,12.0,48,0.00,,,0.00,900.000000,,2013-06-01 17:52:00,
2013-06-01 14:02:00,90.0,68.0,-100.00,SE,130,5.0,12.0,48,0.00,,,0.00,900.000000,,2013-06-01 18:02:00,
2013-06-01 14:12:00,90.0,68.0,-100.00,SE,130,5.0,12.0,48,0.00,,,0.00,900.000000,,2013-06-01 18:12:00,
2013-06-01 14:22:00,90.0,68.0,-100.00,SE,130,5.0,12.0,48,0.00,,,0.00,900.000000,,2013-06-01 18:22:00,
2013-06-01 14:52:00,89.0,64.0,-100.00,SE,125,5.0,10.0,43,0.00,,,0.00,868.000000,,2013-06-01 18:52:00,
2013-06-01 15:02:00,89.0,64.0,-100.00,SE,125,5.0,10.0,43,0.00,,,0.00,868.000000,,2013-06-01 19:02:00,
2013-06-01 15:12:00,89.0,64.0,-100.00,SE,125,5.0,10.0,43,0.00,,,0.00,868.000000,,2013-06-01 19:12:00,
2013-06-01 15:21:00,89.0,64.0,-100.00,SE,125,5.0,10.0,43,0.00,,,0.00,868.000000,,2013-06-01 19:21:00,
2013-06-01 15:53:00,84.0,62.0,-100.00,SSE,151,5.0,12.0,47,0.00,,,0.00,713.000000,,2013-06-01 19:53:00,
2013-06-01 16:02:00,84.0,62.0,-100.00,SSE,151,5.0,12.0,47,0.00,,,0.00,713.000000,,2013-06-01 20:02:00,
2013-06-01 16:12:00,84.0,62.0,-100.00,SSE,151,5.0,12.0,47,0.00,,,0.00,713.000000,,2013-06-01 20:12:00,
2013-06-01 16:22:00,84.0,62.0,-100.00,SSE,151,5.0,12.0,47,0.00,,,0.00,713.000000,,2013-06-01 20:22:00,
2013-06-01 16:52:00,82.0,62.0,-100.00,SE,133,5.0,12.0,51,0.00,,,0.00,649.000000,,2013-06-01 20:52:00,
2013-06-01 17:02:00,82.0,62.0,-100.00,SE,133,5.0,12.0,51,0.00,,,0.00,649.000000,,2013-06-01 21:02:00,
2013-06-01 17:12:00,82.0,62.0,-100.00,SE,133,5.0,12.0,51,0.00,,,0.00,649.000000,,2013-06-01 21:12:00,
2013-06-01 17:22:00,82.0,62.0,-100.00,SE,133,5.0,12.0,51,0.00,,,0.00,649.000000,,2013-06-01 21:22:00,
2013-06-01 17:53:00,80.0,61.0,-100.00,SE,127,4.0,12.0,53,0.00,,,0.00,479.000000,,2013-06-01 21:53:00,
2013-06-01 18:03:00,80.0,61.0,-100.00,SE,127,4.0,12.0,53,0.00,,,0.00,479.000000,,2013-06-01 22:03:00,
2013-06-01 18:12:00,80.0,61.0,-100.00,SE,127,4.0,12.0,53,0.00,,,0.00,479.000000,,2013-06-01 22:12:00,
2013-06-01 18:23:00,80.0,61.0,-100.00,SE,127,4.0,12.0,53,0.00,,,0.00,479.000000,,2013-06-01 22:23:00,
2013-06-01 18:53:00,76.0,60.0,-100.00,SE,132,4.0,8.0,57,0.00,,,0.00,228.000000,,2013-06-01 22:53:00,
2013-06-01 19:02:00,76.0,60.0,-100.00,SE,132,4.0,8.0,57,0.00,,,0.00,228.000000,,2013-06-01 23:02:00,
2013-06-01 19:12:00,76.0,60.0,-100.00,SE,132,4.0,8.0,57,0.00,,,0.00,228.000000,,2013-06-01 23:12:00,
2013-06-01 19:22:00,76.0,60.0,-100.00,SE,132,4.0,8.0,57,0.00,,,0.00,228.000000,,2013-06-01 23:22:00,
2013-06-01 19:52:00,71.0,59.0,-100.00,SE,128,2.0,7.0,66,0.00,,,0.00,82.000000,,2013-06-01 23:52:00,
2013-06-01 20:02:00,71.0,59.0,-100.00,SE,128,2.0,7.0,66,0.00,,,0.00,82.000000,,2013-06-02 00:02:00,
2013-06-01 20:11:00,71.0,59.0,-100.00,SE,128,2.0,7.0,66,0.00,,,0.00,82.000000,,2013-06-02 00:11:00,
2013-06-01 20:22:00,71.0,59.0,-100.00,SE,128,2.0,7.0,66,0.00,,,0.00,82.000000,,2013-06-02 00:22:00,
2013-06-01 20:52:00,74.0,62.0,-100.00,West,274,2.0,7.0,67,0.00,,,0.00,14.000000,,2013-06-02 00:52:00,
2013-06-01 21:02:00,74.0,62.0,-100.00,West,274,2.0,7.0,67,0.00,,,0.00,14.000000,,2013-06-02 01:02:00,
2013-06-01 21:11:00,74.0,62.0,-100.00,West,274,2.0,7.0,67,0.00,,,0.00,14.000000,,2013-06-02 01:11:00,
2013-06-01 21:22:00,74.0,62.0,-100.00,West,274,2.0,7.0,67,0.00,,,0.00,14.000000,,2013-06-02 01:22:00,
2013-06-01 21:52:00,72.0,63.0,-100.00,SW,231,1.0,3.0,74,0.00,,,0.00,0.000000,,2013-06-02 01:52:00,
2013-06-01 22:02:00,72.0,63.0,-100.00,SW,231,1.0,3.0,74,0.00,,,0.00,0.000000,,2013-06-02 02:02:00,
2013-06-01 22:12:00,72.0,63.0,-100.00,SW,231,1.0,3.0,74,0.00,,,0.00,0.000000,,2013-06-02 02:12:00,
2013-06-01 22:21:00,72.0,63.0,-100.00,SW,231,1.0,3.0,74,0.00,,,0.00,0.000000,,2013-06-02 02:21:00,
2013-06-01 22:52:00,76.0,66.0,-100.00,WSW,238,2.0,6.0,71,0.00,,,0.00,0.000000,,2013-06-02 02:52:00,
2013-06-01 23:02:00,76.0,66.0,-100.00,WSW,238,2.0,6.0,71,0.00,,,0.00,0.000000,,2013-06-02 03:02:00,
2013-06-01 23:11:00,76.0,66.0,-100.00,WSW,238,2.0,6.0,71,0.00,,,0.00,0.000000,,2013-06-02 03:11:00,
2013-06-01 23:21:00,76.0,66.0,-100.00,WSW,238,2.0,6.0,71,0.00,,,0.00,0.000000,,2013-06-02 03:21:00,
2013-06-01 23:53:00,78.0,67.0,-100.00,WSW,247,4.0,9.0,70,0.00,,,0.00,0.000000,,2013-06-02 03:53:00,